Latest Coastal Weather Observations for Mardie

IDW60701

Issued at 7:42 am WST Friday 12 February 2016 (issued every 10 minutes, with the page automatically refreshed every 10 minutes)

About coastal observations | Map of coastal stations | Coastal observations for WA | Marine services | Other Formats
Station Details ID: 005008 Name: MARDIE Lat: -21.19 Lon: 115.98 Height: 11.0 m
Data from the previous 72 hours. | See also: Recent months at Mardie
Date/Time
WST
Temp

°C
Wind Pressure Rain
since 9am
mm
Weather Cloud Vis
km
Sea
Height
m
Swell
Dir
 
Speed
knots
Gust
knots
hPa Trend Height
m
Period
s
Dir
12/07:30am 29.1 SSW 3 5 1008.0 - 0.0 - - - - - - -
12/07:00am 27.1 SSW 3 5 1007.9 - 0.0 - - - - - - -
12/06:30am 25.5 SSW 4 5 1007.7 - 0.0 - - - - - - -
12/06:00am 25.3 SE 1 4 1007.7 - 0.0 - - - - - - -
12/05:30am 25.4 SE 2 3 1007.5 - 0.0 - - - - - - -
12/05:00am 25.6 SSW 3 5 1007.4 - 0.0 - - - - - - -
12/04:30am 26.2 CALM 0 0 1007.2 - 0.0 - - - - - - -
12/04:00am 26.4 CALM 0 2 1007.2 - 0.0 - - - - - - -
12/03:30am 26.4 SW 1 4 1007.0 - 0.0 - - - - - - -
12/03:00am 26.7 SW 2 4 1007.1 - 0.0 - - - - - - -
12/02:30am 26.9 SW 3 4 1007.1 - 0.0 - - - - - - -
12/02:00am 27.2 CALM 0 0 1007.5 - 0.0 - - - - - - -
12/01:30am 27.1 SW 3 3 1007.5 - 0.0 - - - - - - -
12/01:00am 27.3 CALM 0 0 1007.7 - 0.0 - - - - - - -
12/12:30am 28.6 CALM 0 0 1008.0 - 0.0 - - - - - - -
12/12:00am 28.6 SW 1 3 1008.2 - 0.0 - - - - - - -
 
Date/Time
WST
Temp

°C
Wind Pressure Rain
since 9am
mm
Weather Cloud Vis
km
Sea
Height
m
Swell
Dir
 
Speed
knots
Gust
knots
hPa Trend Height
m
Period
s
Dir
11/11:30pm 28.9 SW 2 3 1008.2 - 0.0 - - - - - - -
11/11:00pm 29.2 SW 2 5 1008.5 - 0.0 - - - - - - -
11/10:30pm 29.3 SW 4 6 1008.4 - 0.0 - - - - - - -
11/10:00pm 29.7 WSW 5 6 1008.2 - 0.0 - - - - - - -
11/09:30pm 30.0 W 4 5 1008.0 - 0.0 - - - - - - -
11/09:00pm 30.5 W 4 5 1007.9 - 0.0 - - - - - - -
11/08:30pm 31.0 WSW 5 6 1007.8 - 0.0 - - - - - - -
11/08:00pm 31.4 WSW 6 9 1007.4 - 0.0 - - - - - - -
11/07:30pm 32.2 W 6 9 1007.0 - 0.0 - - - - - - -
11/07:00pm 33.5 W 7 11 1006.5 - 0.0 - - - - - - -
11/06:30pm 35.1 W 9 11 1006.1 - 0.0 - - - - - - -
11/06:00pm 36.4 WNW 9 13 1005.8 - 0.0 - - - - - - -
11/05:30pm 38.9 WNW 10 13 1005.4 - 0.0 - - - - - - -
11/05:00pm 40.6 WNW 11 15 1005.2 - 0.0 - - - - - - -
11/04:30pm 41.1 WNW 11 15 1005.0 - 0.0 - - - - - - -
11/04:00pm 42.4 WNW 12 15 1005.0 - 0.0 - - - - - - -
11/03:30pm 43.1 WNW 12 15 1005.2 - 0.0 - - - - - - -
11/03:00pm 42.3 WNW 12 17 1005.2 - 0.0 - - - - - - -
11/02:30pm 43.8 NW 11 17 1005.5 - 0.0 - - - - - - -
11/02:00pm 42.9 NW 13 17 1005.6 - 0.0 - - - - - - -
11/01:30pm 43.0 WNW 13 17 1005.6 - 0.0 - - - - - - -
11/01:00pm 42.3 W 14 18 1005.8 - 0.0 - - - - - - -
11/12:30pm 44.3 SSW 4 8 1006.2 - 0.0 - - - - - - -
11/12:00pm 43.9 SSW 2 5 1006.7 - 0.0 - - - - - - -
11/11:30am 43.3 WSW 5 10 1007.1 - 0.0 - - - - - - -
11/11:00am 42.5 S 6 11 1007.5 - 0.0 - - - - - - -
11/10:30am 41.7 SSW 4 8 1007.9 - 0.0 - - - - - - -
11/10:00am 40.7 SSW 6 9 1008.2 - 0.0 - - - - - - -
11/09:30am 38.6 S 3 6 1008.4 - 0.0 - - - - - - -
11/09:00am 36.4 WSW 1 2 1008.6 - - - - - - - - -
11/08:30am 34.2 WSW 1 2 1008.7 - - - - - - - - -
11/08:00am 31.8 S 2 3 1008.6 - - - - - - - - -
11/07:30am 30.6 CALM 0 1 1008.5 - - - - - - - - -
11/07:00am 28.0 S 4 5 1008.1 - - - - - - - - -
11/06:30am 25.8 SSW 2 3 1007.9 - - - - - - - - -
11/06:00am 25.5 SSW 2 2 1007.7 - - - - - - - - -
11/05:30am 25.6 SSW 3 4 1007.6 - - - - - - - - -
11/05:00am 26.0 SSW 3 4 1007.4 - - - - - - - - -
11/04:30am 26.2 SSW 3 4 1007.3 - - - - - - - - -
11/04:00am 26.7 WSW 4 5 1007.0 - - - - - - - - -
11/03:30am 26.7 W 2 3 1007.0 - - - - - - - - -
11/03:00am 27.5 CALM 0 0 1007.0 - 0.0 - - - - - - -
11/02:30am 27.6 CALM 0 0 1007.0 - - - - - - - - -
11/02:00am 27.6 CALM 0 0 1007.0 - - - - - - - - -
11/01:30am 27.8 CALM 0 0 1007.1 - - - - - - - - -
11/01:00am 27.9 W 1 2 1007.2 - - - - - - - - -
11/12:30am 28.4 W 2 3 1007.5 - - - - - - - - -
11/12:00am 28.8 W 2 2 1007.8 - - - - - - - - -
 
Date/Time
WST
Temp

°C
Wind Pressure Rain
since 9am
mm
Weather Cloud Vis
km
Sea
Height
m
Swell
Dir
 
Speed
knots
Gust
knots
hPa Trend Height
m
Period
s
Dir
10/11:30pm 29.2 CALM 0 0 1007.9 - - - - - - - - -
10/11:00pm 29.4 CALM 0 0 1008.1 - - - - - - - - -
10/10:30pm 29.6 W 2 5 1008.0 - - - - - - - - -
10/10:00pm 29.9 CALM 0 1 1008.1 - - - - - - - - -
10/09:30pm 30.1 W 2 3 1008.0 - - - - - - - - -
10/09:00pm 30.6 W 3 4 1008.1 - - - - - - - - -
10/09:30am 38.4 SSE 3 5 1009.0 - 0.0 - - - - - - -
10/09:00am 36.1 N 3 4 1009.2 - - - - - - - - -
10/08:30am 33.1 NNW 1 3 1009.2 - - - - - - - - -
10/08:00am 31.6 CALM 0 1 1009.1 - - - - - - - - -
10/07:30am 29.3 CALM 0 0 1009.1 - - - - - - - - -
10/07:00am 27.8 CALM 0 0 1008.9 - - - - - - - - -
10/06:30am 26.5 CALM 0 0 1008.8 - - - - - - - - -
10/06:00am 25.9 CALM 0 0 1008.5 - - - - - - - - -
10/05:30am 26.2 NNW 1 1 1008.3 - - - - - - - - -
10/05:00am 26.3 CALM 0 0 1008.1 - - - - - - - - -
10/04:30am 26.4 CALM 0 0 1008.0 - - - - - - - - -
10/04:00am 26.8 CALM 0 1 1008.0 - - - - - - - - -
10/03:30am 27.4 CALM 0 0 1007.6 - - - - - - - - -
10/03:00am 27.3 CALM 0 2 1007.6 - - - - - - - - -
10/12:00am 28.7 CALM 0 0 1009.0 - - - - - - - - -
 
Date/Time
WST
Temp

°C
Wind Pressure Rain
since 9am
mm
Weather Cloud Vis
km
Sea
Height
m
Swell
Dir
 
Speed
knots
Gust
knots
hPa Trend Height
m
Period
s
Dir
09/11:30pm 28.7 CALM 0 0 1009.0 - - - - - - - - -
09/11:00pm 29.4 CALM 0 0 1008.9 - - - - - - - - -
09/10:30pm 29.6 CALM 0 2 1008.8 - - - - - - - - -
09/10:00pm 29.9 W 1 3 1008.8 - - - - - - - - -
09/09:30pm 30.0 WNW 2 4 1008.6 - - - - - - - - -
09/08:30pm 30.9 W 3 4 1008.2 - - - - - - - - -
09/08:00pm 31.6 W 5 7 1007.9 - - - - - - - - -
09/07:30pm 32.1 WNW 5 7 1007.6 - - - - - - - - -
09/07:00pm 33.0 WNW 6 8 1007.3 - - - - - - - - -
09/06:30pm 34.3 NW 7 9 1006.9 - - - - - - - - -
09/06:00pm 37.5 WNW 8 11 1006.5 - - - - - - - - -
09/05:30pm 39.0 WNW 9 11 1006.2 - - - - - - - - -
09/05:00pm 39.3 WNW 9 12 1006.1 - - - - - - - - -
09/04:30pm 40.0 WNW 9 13 1005.9 - - - - - - - - -
09/04:00pm 39.5 WNW 11 15 1006.0 - - - - - - - - -
09/03:30pm 40.3 WNW 11 14 1006.0 - - - - - - - - -
09/03:00pm 39.8 NW 11 15 1006.3 - - - - - - - - -
09/02:30pm 39.2 NW 11 15 1006.3 - - - - - - - - -
09/02:00pm 40.6 NNW 9 15 1006.4 - - - - - - - - -
09/01:30pm 44.3 ENE 9 18 1006.3 - - - - - - - - -
09/01:00pm 43.2 ESE 14 20 1006.7 - 0.0 - - - - - - -
09/12:30pm 44.1 ESE 14 22 1007.0 - 0.0 - - - - - - -
09/12:00pm 43.5 ESE 12 21 1007.7 - 0.0 - - - - - - -
09/11:30am 43.0 ESE 11 21 1008.1 - 0.0 - - - - - - -
09/11:00am 42.5 SE 10 18 1008.6 - 0.0 - - - - - - -
09/10:30am 41.8 S 8 12 1008.8 - 0.0 - - - - - - -
09/10:00am 40.5 S 6 9 1009.1 - 0.0 - - - - - - -
09/09:30am 38.3 S 5 7 1009.4 - 0.0 - - - - - - -
09/09:00am 37.2 SSE 6 8 1009.5 - 0.0 - - - - - - -
09/08:30am 34.0 SSE 2 3 1009.6 - 0.0 - - - - - - -
09/08:00am 32.1 SW 1 3 1009.5 - 0.0 - - - - - - -

Other Formats:

Comma delimited format used in spreadsheet applications
http://www.bom.gov.au/fwo/IDW60701/IDW60701.94306.axf

JavaScript Object Notation format (JSON) in row-major order
http://www.bom.gov.au/fwo/IDW60701/IDW60701.94306.json